createdAt,value
2018-05-16T00:00:05.535Z,953.50
2018-05-16T00:01:05.541Z,953.52
2018-05-16T00:02:05.560Z,953.47
2018-05-16T00:03:05.561Z,953.51
2018-05-16T00:04:05.627Z,953.51
2018-05-16T00:05:05.581Z,953.51
2018-05-16T00:06:05.592Z,953.49
2018-05-16T00:07:05.601Z,953.50
2018-05-16T00:08:05.615Z,953.47
2018-05-16T00:09:05.624Z,953.49
2018-05-16T00:10:05.633Z,953.50
2018-05-16T00:11:05.650Z,953.52
2018-05-16T00:12:05.654Z,953.52
2018-05-16T00:13:05.664Z,953.50
2018-05-16T00:14:05.677Z,953.51
2018-05-16T00:15:05.679Z,953.52
2018-05-16T00:16:05.693Z,953.51
2018-05-16T00:17:05.701Z,953.51
2018-05-16T00:18:05.709Z,953.49
2018-05-16T00:19:05.726Z,953.46
2018-05-16T00:20:05.743Z,953.49
2018-05-16T00:21:05.757Z,953.45
2018-05-16T00:22:05.751Z,953.44
2018-05-16T00:23:05.767Z,953.45
2018-05-16T00:24:05.777Z,953.42
2018-05-16T00:25:05.778Z,953.42
2018-05-16T00:26:05.797Z,953.42
2018-05-16T00:27:05.799Z,953.40
2018-05-16T00:28:05.811Z,953.41
2018-05-16T00:29:05.828Z,953.37
2018-05-16T00:30:05.830Z,953.35
2018-05-16T00:31:05.840Z,953.34
2018-05-16T00:32:05.862Z,953.32
2018-05-16T00:33:05.860Z,953.31
2018-05-16T00:34:05.872Z,953.32
2018-05-16T00:35:05.887Z,953.29
2018-05-16T00:36:05.887Z,953.29
2018-05-16T00:37:06.459Z,953.33
2018-05-16T00:38:05.910Z,953.32
2018-05-16T00:39:05.925Z,953.28
2018-05-16T00:40:05.927Z,953.34
2018-05-16T00:41:05.941Z,953.33
2018-05-16T00:42:05.950Z,953.28
2018-05-16T00:43:05.960Z,953.28
2018-05-16T00:44:05.974Z,953.28
2018-05-16T00:45:05.987Z,953.29
2018-05-16T00:46:05.993Z,953.30
2018-05-16T00:47:05.996Z,953.30
2018-05-16T00:48:06.007Z,953.35
2018-05-16T00:49:06.020Z,953.33
2018-05-16T00:50:06.034Z,953.33
2018-05-16T00:51:06.039Z,953.34
2018-05-16T00:52:06.044Z,953.32
2018-05-16T00:53:06.064Z,953.36
2018-05-16T00:54:06.064Z,953.39
2018-05-16T00:55:06.078Z,953.41
2018-05-16T00:56:06.085Z,953.36
2018-05-16T00:57:06.103Z,953.42
2018-05-16T00:58:06.105Z,953.35
2018-05-16T00:59:06.115Z,953.37
2018-05-16T01:00:06.125Z,953.37
2018-05-16T01:01:06.141Z,953.38
2018-05-16T01:02:06.210Z,953.37
2018-05-16T01:03:06.159Z,953.33
2018-05-16T01:04:06.172Z,953.34
2018-05-16T01:05:06.176Z,953.32
2018-05-16T01:06:06.190Z,953.33
2018-05-16T01:07:06.194Z,953.31
2018-05-16T01:08:06.206Z,953.23
2018-05-16T01:09:06.220Z,953.23
2018-05-16T01:10:06.226Z,953.22
2018-05-16T01:11:06.232Z,953.22
2018-05-16T01:12:06.243Z,953.23
2018-05-16T01:13:06.255Z,953.21
2018-05-16T01:14:06.264Z,953.24
2018-05-16T01:15:06.280Z,953.21
2018-05-16T01:16:06.288Z,953.21
2018-05-16T01:17:06.293Z,953.22
2018-05-16T01:18:06.308Z,953.18
2018-05-16T01:19:06.309Z,953.18
2018-05-16T01:20:06.321Z,953.20
2018-05-16T01:21:06.339Z,953.18
2018-05-16T01:22:06.340Z,953.20
2018-05-16T01:23:06.355Z,953.19
2018-05-16T01:24:06.365Z,953.21
2018-05-16T01:25:06.372Z,953.27
2018-05-16T01:26:06.466Z,953.23
2018-05-16T01:27:06.400Z,953.19
2018-05-16T01:28:06.394Z,953.20
2018-05-16T01:29:06.406Z,953.17
2018-05-16T01:30:06.417Z,953.17
2018-05-16T01:31:06.427Z,953.16
2018-05-16T01:32:06.438Z,953.16
2018-05-16T01:33:06.457Z,953.13
2018-05-16T01:34:06.458Z,953.13
2018-05-16T01:35:06.469Z,953.10
2018-05-16T01:36:06.476Z,953.08
2018-05-16T01:37:06.484Z,953.10
2018-05-16T01:38:06.495Z,953.03
2018-05-16T01:39:06.515Z,953.09
2018-05-16T01:40:06.603Z,953.07
2018-05-16T01:41:06.523Z,953.09
2018-05-16T01:42:06.531Z,953.05
2018-05-16T01:43:06.544Z,953.03
2018-05-16T01:44:06.557Z,953.04
2018-05-16T01:45:06.573Z,953.07
2018-05-16T01:46:06.571Z,953.05
2018-05-16T01:47:06.580Z,953.05
2018-05-16T01:48:06.588Z,953.09
2018-05-16T01:49:06.602Z,953.06
2018-05-16T01:50:06.617Z,953.04
2018-05-16T01:51:06.619Z,953.09
2018-05-16T01:52:06.626Z,953.10
2018-05-16T01:53:06.640Z,953.13
2018-05-16T01:54:06.649Z,953.12
2018-05-16T01:55:06.658Z,953.14
2018-05-16T01:56:06.677Z,953.16
2018-05-16T01:57:06.677Z,953.18
2018-05-16T01:58:06.698Z,953.18
2018-05-16T01:59:06.701Z,953.19
2018-05-16T02:00:06.705Z,953.16
2018-05-16T02:01:06.713Z,953.18
2018-05-16T02:02:06.732Z,953.20
2018-05-16T02:03:06.736Z,953.19
2018-05-16T02:04:06.746Z,953.15
2018-05-16T02:05:06.753Z,953.16
2018-05-16T02:06:06.762Z,953.10
2018-05-16T02:07:06.776Z,953.11
2018-05-16T02:08:06.785Z,953.11
2018-05-16T02:09:06.793Z,953.12
2018-05-16T02:10:06.800Z,953.11
2018-05-16T02:11:06.808Z,953.14
2018-05-16T02:12:06.819Z,953.15
2018-05-16T02:13:06.832Z,953.12
2018-05-16T02:14:06.851Z,953.15
2018-05-16T02:15:06.850Z,953.14
2018-05-16T02:16:06.862Z,953.12
2018-05-16T02:17:06.878Z,953.10
2018-05-16T02:18:06.882Z,953.08
2018-05-16T02:19:06.892Z,953.09
2018-05-16T02:20:06.910Z,953.07
2018-05-16T02:21:06.914Z,953.09
2018-05-16T02:22:06.920Z,953.08
2018-05-16T02:23:06.927Z,953.06
2018-05-16T02:24:06.938Z,953.04
2018-05-16T02:25:06.950Z,953.06
2018-05-16T02:26:06.962Z,953.00
2018-05-16T02:27:06.969Z,953.01
2018-05-16T02:28:06.977Z,953.04
2018-05-16T02:29:06.986Z,953.04
2018-05-16T02:30:06.999Z,953.03
2018-05-16T02:31:07.002Z,953.09
2018-05-16T02:32:07.025Z,953.06
2018-05-16T02:33:07.026Z,953.07
2018-05-16T02:34:07.036Z,953.07
2018-05-16T02:35:07.049Z,953.07
2018-05-16T02:36:07.053Z,953.05
2018-05-16T02:37:07.060Z,953.06
2018-05-16T02:38:07.078Z,953.04
2018-05-16T02:39:07.077Z,953.04
2018-05-16T02:40:07.095Z,953.03
2018-05-16T02:41:07.100Z,953.07
2018-05-16T02:42:07.108Z,953.03
2018-05-16T02:43:07.118Z,953.10
2018-05-16T02:44:07.138Z,953.07
2018-05-16T02:45:07.140Z,953.05
2018-05-16T02:46:07.157Z,953.04
2018-05-16T02:47:07.166Z,953.00
2018-05-16T02:48:07.579Z,953.03
2018-05-16T02:49:07.178Z,953.02
2018-05-16T02:50:07.196Z,953.02
2018-05-16T02:51:07.204Z,953.01
2018-05-16T02:52:07.210Z,952.99
2018-05-16T02:53:07.216Z,953.00
2018-05-16T02:54:07.227Z,952.99
2018-05-16T02:55:07.233Z,952.98
2018-05-16T02:56:07.249Z,952.99
2018-05-16T02:57:07.253Z,952.96
2018-05-16T02:58:07.263Z,952.93
2018-05-16T02:59:07.272Z,952.93
2018-05-16T03:00:07.283Z,952.95
2018-05-16T03:01:07.293Z,952.92
2018-05-16T03:02:07.302Z,952.96
2018-05-16T03:03:07.318Z,952.92
2018-05-16T03:04:07.324Z,952.94
2018-05-16T03:05:07.326Z,952.90
2018-05-16T03:06:07.339Z,952.93
2018-05-16T03:07:07.345Z,952.95
2018-05-16T03:08:07.359Z,952.93
2018-05-16T03:09:07.369Z,952.93
2018-05-16T03:10:07.381Z,952.91
2018-05-16T03:11:07.383Z,952.87
2018-05-16T03:12:07.394Z,952.91
2018-05-16T03:13:07.407Z,952.91
2018-05-16T03:14:07.412Z,952.90
2018-05-16T03:15:07.431Z,952.91
2018-05-16T03:16:07.430Z,952.91
2018-05-16T03:17:07.441Z,952.90
2018-05-16T03:18:07.451Z,952.90
2018-05-16T03:19:07.463Z,952.89
2018-05-16T03:20:07.468Z,952.90
2018-05-16T03:21:07.483Z,952.92
2018-05-16T03:22:07.489Z,952.90
2018-05-16T03:23:07.500Z,952.93
2018-05-16T03:24:07.510Z,952.91
2018-05-16T03:25:07.525Z,952.91
2018-05-16T03:26:07.539Z,952.89
2018-05-16T03:27:07.557Z,952.92
2018-05-16T03:28:07.551Z,952.92
2018-05-16T03:29:07.560Z,952.95
2018-05-16T03:30:07.568Z,952.93
2018-05-16T03:31:07.578Z,952.95
2018-05-16T03:32:07.587Z,952.93
2018-05-16T03:33:07.598Z,952.98
2018-05-16T03:34:07.604Z,952.99
2018-05-16T03:35:07.614Z,952.98
2018-05-16T03:36:07.627Z,952.99
2018-05-16T03:37:07.638Z,952.99
2018-05-16T03:38:07.646Z,953.04
2018-05-16T03:39:07.654Z,953.02
2018-05-16T03:40:07.669Z,952.99
2018-05-16T03:41:07.671Z,953.02
2018-05-16T03:42:07.680Z,952.99
2018-05-16T03:43:07.690Z,952.97
2018-05-16T03:44:07.704Z,952.97
2018-05-16T03:45:07.711Z,952.99
2018-05-16T03:46:07.725Z,952.97
2018-05-16T03:47:07.727Z,953.01
2018-05-16T03:48:07.741Z,952.92
2018-05-16T03:49:07.746Z,952.97
2018-05-16T03:50:07.762Z,953.00
2018-05-16T03:51:07.763Z,952.93
2018-05-16T03:52:07.785Z,952.93
2018-05-16T03:53:07.800Z,952.96
2018-05-16T03:54:07.796Z,952.93
2018-05-16T03:55:07.802Z,952.99
2018-05-16T03:56:07.814Z,952.95
2018-05-16T03:57:07.823Z,952.94
2018-05-16T03:58:07.840Z,952.94
2018-05-16T03:59:07.841Z,952.96
2018-05-16T04:00:07.848Z,952.96
2018-05-16T04:01:07.861Z,952.95
2018-05-16T04:02:07.873Z,952.90
2018-05-16T04:03:07.881Z,952.90
2018-05-16T04:04:07.904Z,952.92
2018-05-16T04:05:07.898Z,952.89
2018-05-16T04:06:07.912Z,952.89
2018-05-16T04:07:07.920Z,952.93
2018-05-16T04:08:07.931Z,952.89
2018-05-16T04:09:07.937Z,952.87
2018-05-16T04:10:07.952Z,952.87
2018-05-16T04:11:07.955Z,952.90
2018-05-16T04:12:07.966Z,952.89
2018-05-16T04:13:07.976Z,952.89
2018-05-16T04:14:07.987Z,952.96
2018-05-16T04:15:07.993Z,952.96
2018-05-16T04:16:08.014Z,952.97
2018-05-16T04:17:08.015Z,952.98
2018-05-16T04:18:08.025Z,952.98
2018-05-16T04:19:08.032Z,952.98
2018-05-16T04:20:08.042Z,952.98
2018-05-16T04:21:08.052Z,953.01
2018-05-16T04:22:08.071Z,952.99
2018-05-16T04:23:08.071Z,952.99
2018-05-16T04:24:08.082Z,953.02
2018-05-16T04:25:08.092Z,953.01
2018-05-16T04:26:08.100Z,953.03
2018-05-16T04:27:08.106Z,953.02
2018-05-16T04:28:08.124Z,953.00
2018-05-16T04:29:08.128Z,952.99
2018-05-16T04:30:08.142Z,953.01
2018-05-16T04:31:08.145Z,952.98
2018-05-16T04:32:08.158Z,953.00
2018-05-16T04:33:08.165Z,953.04
2018-05-16T04:34:08.191Z,953.04
2018-05-16T04:35:08.189Z,953.02
2018-05-16T04:36:08.195Z,953.01
2018-05-16T04:37:08.205Z,953.02
2018-05-16T04:38:08.216Z,953.04
2018-05-16T04:39:08.224Z,953.00
2018-05-16T04:40:08.240Z,952.98
2018-05-16T04:41:08.242Z,953.03
2018-05-16T04:42:08.254Z,953.01
2018-05-16T04:43:08.261Z,953.04
2018-05-16T04:44:08.268Z,953.03
2018-05-16T04:45:08.278Z,953.05
2018-05-16T04:46:08.288Z,953.07
2018-05-16T04:47:08.306Z,953.06
2018-05-16T04:48:08.396Z,953.08
2018-05-16T04:49:08.318Z,953.07
2018-05-16T04:50:08.329Z,953.08
2018-05-16T04:51:08.339Z,953.07
2018-05-16T04:52:08.345Z,953.02
2018-05-16T04:53:08.360Z,953.07
2018-05-16T04:54:08.363Z,953.02
2018-05-16T04:55:08.375Z,952.99
2018-05-16T04:56:08.381Z,953.00
2018-05-16T04:57:08.392Z,953.01
2018-05-16T04:58:08.405Z,952.98
2018-05-16T04:59:08.418Z,953.01
2018-05-16T05:00:08.421Z,952.99
2018-05-16T05:01:08.431Z,953.00
2018-05-16T05:02:08.441Z,953.02
2018-05-16T05:03:08.455Z,952.99
2018-05-16T05:04:08.460Z,953.00
2018-05-16T05:05:08.474Z,953.03
2018-05-16T05:06:08.482Z,953.04
2018-05-16T05:07:08.488Z,953.03
2018-05-16T05:08:08.499Z,953.04
2018-05-16T05:09:08.511Z,953.03
2018-05-16T05:10:08.516Z,953.05
2018-05-16T05:11:08.541Z,953.04
2018-05-16T05:12:08.537Z,953.04
2018-05-16T05:13:08.550Z,953.02
2018-05-16T05:14:15.729Z,953.06
2018-05-16T05:16:12.589Z,953.07
2018-05-16T05:17:12.575Z,953.06
2018-05-16T05:19:16.604Z,953.08
2018-05-16T05:20:16.612Z,953.06
2018-05-16T05:21:16.602Z,953.08
2018-05-16T05:22:16.609Z,953.06
2018-05-16T05:23:16.623Z,953.04
2018-05-16T05:24:16.630Z,953.08
2018-05-16T05:25:16.641Z,953.09
2018-05-16T05:26:16.651Z,953.07
2018-05-16T05:27:16.671Z,953.07
2018-05-16T05:28:16.677Z,953.08
2018-05-16T05:29:16.677Z,953.06
2018-05-16T05:30:16.750Z,953.07
2018-05-16T05:31:16.700Z,953.12
2018-05-16T05:32:16.708Z,953.13
2018-05-16T05:33:16.719Z,953.15
2018-05-16T05:34:16.727Z,953.16
2018-05-16T05:35:16.736Z,953.11
2018-05-16T05:36:16.744Z,953.12
2018-05-16T05:37:16.757Z,953.18
2018-05-16T05:38:17.490Z,953.17
2018-05-16T05:39:16.782Z,953.18
2018-05-16T05:40:16.785Z,953.17
2018-05-16T05:41:16.793Z,953.14
2018-05-16T05:42:16.854Z,953.20
2018-05-16T05:43:16.835Z,953.16
2018-05-16T05:44:16.826Z,953.13
2018-05-16T05:45:16.834Z,953.17
2018-05-16T05:46:16.843Z,953.16
2018-05-16T05:47:16.853Z,953.16
2018-05-16T05:48:16.863Z,953.14
2018-05-16T05:49:16.963Z,953.13
2018-05-16T05:50:16.884Z,953.16
2018-05-16T05:51:16.887Z,953.18
2018-05-16T05:52:16.902Z,953.18
2018-05-16T05:53:16.908Z,953.18
2018-05-16T05:54:16.923Z,953.13
2018-05-16T05:55:16.942Z,953.17
2018-05-16T05:56:16.937Z,953.18
2018-05-16T05:57:16.954Z,953.12
2018-05-16T05:58:16.961Z,953.15
2018-05-16T05:59:16.971Z,953.14
2018-05-16T06:00:16.980Z,953.13
2018-05-16T06:01:16.993Z,953.14
2018-05-16T06:02:16.999Z,953.13
2018-05-16T06:03:17.013Z,953.16
2018-05-16T06:04:17.023Z,953.16
2018-05-16T06:05:17.035Z,953.17
2018-05-16T06:06:17.042Z,953.15
2018-05-16T06:07:17.054Z,953.16
2018-05-16T06:08:17.057Z,953.18
2018-05-16T06:09:17.076Z,953.14
2018-05-16T06:10:17.080Z,953.17
2018-05-16T06:11:17.090Z,953.16
2018-05-16T06:12:17.096Z,953.18
2018-05-16T06:13:17.110Z,953.12
2018-05-16T06:14:17.116Z,953.15
2018-05-16T06:15:17.129Z,953.13
2018-05-16T06:16:17.142Z,953.15
2018-05-16T06:17:17.150Z,953.16
2018-05-16T06:18:17.159Z,953.18
2018-05-16T06:19:17.170Z,953.19
2018-05-16T06:20:17.180Z,953.17
2018-05-16T06:21:17.187Z,953.20
2018-05-16T06:22:17.203Z,953.16
2018-05-16T06:23:17.207Z,953.19
2018-05-16T06:24:17.219Z,953.19
2018-05-16T06:25:17.229Z,953.17
2018-05-16T06:26:17.239Z,953.15
2018-05-16T06:27:17.330Z,953.16
2018-05-16T06:28:17.267Z,953.20
2018-05-16T06:29:17.269Z,953.20
2018-05-16T06:30:17.277Z,953.18
2018-05-16T06:31:17.289Z,953.14
2018-05-16T06:32:17.298Z,953.17
2018-05-16T06:33:17.304Z,953.18
2018-05-16T06:34:17.329Z,953.16
2018-05-16T06:35:17.326Z,953.17
2018-05-16T06:36:17.339Z,953.12
2018-05-16T06:37:17.351Z,953.16
2018-05-16T06:38:17.359Z,953.17
2018-05-16T06:39:17.405Z,953.12
2018-05-16T06:40:17.377Z,953.16
2018-05-16T06:41:17.388Z,953.17
2018-05-16T06:42:17.397Z,953.16
2018-05-16T06:43:17.410Z,953.16
2018-05-16T06:44:17.419Z,953.16
2018-05-16T06:45:17.426Z,953.18
2018-05-16T06:46:17.440Z,953.15
2018-05-16T06:47:17.451Z,953.12
2018-05-16T06:48:17.459Z,953.12
2018-05-16T06:49:17.467Z,953.13
2018-05-16T06:50:17.479Z,953.11
2018-05-16T06:51:17.484Z,953.18
2018-05-16T06:52:17.498Z,953.19
2018-05-16T06:53:17.505Z,953.24
2018-05-16T06:54:17.522Z,953.24
2018-05-16T06:55:17.527Z,953.24
2018-05-16T06:56:17.539Z,953.24
2018-05-16T06:57:17.555Z,953.22
2018-05-16T06:58:17.556Z,953.25
2018-05-16T06:59:17.567Z,953.26
2018-05-16T07:00:17.577Z,953.23
2018-05-16T07:01:17.588Z,953.22
2018-05-16T07:02:17.609Z,953.26
2018-05-16T07:03:17.613Z,953.25
2018-05-16T07:04:17.620Z,953.22
2018-05-16T07:05:17.632Z,953.25
2018-05-16T07:06:17.640Z,953.22
2018-05-16T07:07:17.652Z,953.23
2018-05-16T07:08:17.661Z,953.20
2018-05-16T07:09:17.671Z,953.27
2018-05-16T07:10:17.678Z,953.23
2018-05-16T07:11:17.689Z,953.25
2018-05-16T07:12:17.698Z,953.31
2018-05-16T07:13:17.709Z,953.27
2018-05-16T07:14:17.718Z,953.26
2018-05-16T07:15:17.725Z,953.28
2018-05-16T07:16:17.738Z,953.30
2018-05-16T07:17:17.752Z,953.30
2018-05-16T07:18:17.767Z,953.28
2018-05-16T07:19:17.766Z,953.23
2018-05-16T07:20:17.779Z,953.27
2018-05-16T07:21:17.789Z,953.24
2018-05-16T07:22:17.798Z,953.29
2018-05-16T07:23:17.807Z,953.26
2018-05-16T07:24:17.818Z,953.31
2018-05-16T07:25:17.828Z,953.20
2018-05-16T07:26:17.836Z,953.25
2018-05-16T07:27:17.856Z,953.23
2018-05-16T07:28:17.858Z,953.19
2018-05-16T07:29:17.889Z,953.18
2018-05-16T07:30:17.880Z,953.18
2018-05-16T07:31:17.889Z,953.17
2018-05-16T07:32:17.899Z,953.20
2018-05-16T07:33:17.921Z,953.21
2018-05-16T07:34:17.918Z,953.15
2018-05-16T07:35:17.928Z,953.12
2018-05-16T07:36:17.939Z,953.12
2018-05-16T07:37:17.953Z,953.12
2018-05-16T07:38:17.959Z,953.10
2018-05-16T07:39:17.974Z,953.12
2018-05-16T07:40:17.978Z,953.09
2018-05-16T07:41:17.996Z,953.14
2018-05-16T07:42:18.000Z,953.14
2018-05-16T07:43:18.009Z,953.10
2018-05-16T07:44:18.021Z,953.08
2018-05-16T07:45:18.029Z,953.05
2018-05-16T07:46:18.043Z,953.07
2018-05-16T07:47:18.049Z,953.08
2018-05-16T07:48:18.059Z,953.11
2018-05-16T07:49:18.069Z,953.13
2018-05-16T07:50:18.080Z,953.13
2018-05-16T07:51:18.192Z,953.16
2018-05-16T07:52:18.099Z,953.16
2018-05-16T07:53:18.109Z,953.13
2018-05-16T07:54:18.119Z,953.13
2018-05-16T07:55:18.132Z,953.13
2018-05-16T07:56:18.141Z,953.07
2018-05-16T07:57:18.154Z,953.10
2018-05-16T07:58:18.164Z,953.10
2018-05-16T07:59:18.175Z,953.09
2018-05-16T08:00:18.198Z,953.07
2018-05-16T08:01:18.193Z,953.08
2018-05-16T08:02:18.206Z,953.15
2018-05-16T08:03:18.289Z,953.14
2018-05-16T08:04:18.227Z,953.15
2018-05-16T08:05:18.232Z,953.12
2018-05-16T08:06:18.255Z,953.14
2018-05-16T08:07:18.257Z,953.19
2018-05-16T08:08:18.263Z,953.14
2018-05-16T08:09:18.277Z,953.14
2018-05-16T08:10:18.285Z,953.12
2018-05-16T08:11:18.297Z,953.07
2018-05-16T08:12:18.357Z,953.10
2018-05-16T08:13:18.314Z,953.09
2018-05-16T08:14:18.328Z,953.14
2018-05-16T08:15:18.333Z,953.16
2018-05-16T08:16:18.349Z,953.08
2018-05-16T08:17:18.366Z,953.05
2018-05-16T08:18:18.368Z,953.10
2018-05-16T08:19:18.377Z,953.07
2018-05-16T08:20:18.389Z,953.10
2018-05-16T08:21:18.394Z,953.14
2018-05-16T08:22:18.405Z,953.07
2018-05-16T08:23:18.416Z,953.15
2018-05-16T08:24:18.429Z,953.11
2018-05-16T08:25:18.454Z,953.21
2018-05-16T08:26:18.455Z,953.20
2018-05-16T08:27:18.455Z,953.10
2018-05-16T08:28:18.481Z,953.06
2018-05-16T08:29:18.481Z,953.14
2018-05-16T08:30:18.493Z,953.21
2018-05-16T08:31:18.510Z,953.14
2018-05-16T08:32:18.512Z,953.14
2018-05-16T08:33:18.527Z,953.13
2018-05-16T08:34:18.533Z,953.14
2018-05-16T08:35:18.540Z,953.08
2018-05-16T08:36:18.553Z,953.06
2018-05-16T08:37:18.568Z,953.12
2018-05-16T08:38:18.583Z,953.18
2018-05-16T08:39:18.609Z,953.14
2018-05-16T08:40:18.599Z,953.10
2018-05-16T08:41:18.609Z,953.14
2018-05-16T08:42:18.618Z,953.23
2018-05-16T08:43:18.627Z,953.18
2018-05-16T08:44:18.641Z,953.30
2018-05-16T08:45:18.649Z,953.31
2018-05-16T08:46:18.657Z,953.16
2018-05-16T08:47:18.668Z,953.11
2018-05-16T08:48:18.685Z,953.24
2018-05-16T08:49:18.691Z,953.31
2018-05-16T08:50:18.701Z,953.24
2018-05-16T08:51:18.731Z,953.24
2018-05-16T08:52:18.726Z,953.23
2018-05-16T08:53:18.733Z,953.23
2018-05-16T08:54:18.742Z,953.19
2018-05-16T08:55:18.754Z,953.17
2018-05-16T08:56:18.766Z,953.14
2018-05-16T08:57:18.777Z,953.14
2018-05-16T08:58:18.783Z,953.11
2018-05-16T08:59:18.797Z,953.13
2018-05-16T09:00:18.809Z,953.16
2018-05-16T09:01:18.915Z,953.17
2018-05-16T09:02:18.826Z,953.17
2018-05-16T09:03:18.839Z,953.19
2018-05-16T09:04:18.846Z,953.20
2018-05-16T09:05:18.861Z,953.23
2018-05-16T09:06:18.870Z,953.20
2018-05-16T09:07:18.885Z,953.23
2018-05-16T09:08:18.965Z,953.23
2018-05-16T09:09:18.908Z,953.22
2018-05-16T09:10:18.912Z,953.22
2018-05-16T09:11:18.924Z,953.28
2018-05-16T09:12:18.929Z,953.34
2018-05-16T09:13:18.967Z,953.37
2018-05-16T09:14:18.952Z,953.37
2018-05-16T09:15:18.957Z,953.38
2018-05-16T09:16:18.972Z,953.35
2018-05-16T09:17:19.077Z,953.35
2018-05-16T09:18:19.000Z,953.36
2018-05-16T09:19:18.999Z,953.36
2018-05-16T09:20:19.014Z,953.34
2018-05-16T09:21:19.026Z,953.37
2018-05-16T09:22:19.031Z,953.43
2018-05-16T09:23:19.046Z,953.43
2018-05-16T09:24:19.053Z,953.41
2018-05-16T09:25:19.066Z,953.44
2018-05-16T09:26:19.075Z,953.42
2018-05-16T09:27:19.082Z,953.41
2018-05-16T09:28:19.094Z,953.44
2018-05-16T09:29:19.108Z,953.45
2018-05-16T09:30:19.110Z,953.46
2018-05-16T09:31:19.125Z,953.50
2018-05-16T09:32:19.444Z,953.50
2018-05-16T09:33:19.144Z,953.47
2018-05-16T09:34:19.522Z,953.53
2018-05-16T09:35:19.163Z,953.51
2018-05-16T09:36:19.178Z,953.52
2018-05-16T09:37:19.341Z,953.50
2018-05-16T09:38:19.196Z,953.49
2018-05-16T09:39:19.207Z,953.46
2018-05-16T09:40:19.304Z,953.49
2018-05-16T09:41:19.226Z,953.46
2018-05-16T09:42:19.240Z,953.47
2018-05-16T09:43:19.261Z,953.49
2018-05-16T09:44:19.257Z,953.48
2018-05-16T09:45:19.275Z,953.49
2018-05-16T09:46:19.286Z,953.51
2018-05-16T09:47:19.295Z,953.54
2018-05-16T09:48:19.300Z,953.54
2018-05-16T09:49:19.309Z,953.54
2018-05-16T09:50:19.324Z,953.56
2018-05-16T09:51:19.326Z,953.63
2018-05-16T09:52:19.341Z,953.61
2018-05-16T09:53:19.350Z,953.61
2018-05-16T09:54:19.359Z,953.57
2018-05-16T09:55:19.371Z,953.64
2018-05-16T09:56:19.379Z,953.67
2018-05-16T09:57:19.395Z,953.66
2018-05-16T09:58:19.421Z,953.71
2018-05-16T09:59:19.410Z,953.73
2018-05-16T10:00:19.422Z,953.73
2018-05-16T10:01:19.432Z,953.73
2018-05-16T10:02:19.439Z,953.75
2018-05-16T10:03:19.448Z,953.71
2018-05-16T10:04:19.471Z,953.70
2018-05-16T10:05:19.476Z,953.71
2018-05-16T10:06:19.485Z,953.73
2018-05-16T10:07:19.494Z,953.72
2018-05-16T10:08:19.502Z,953.72
2018-05-16T10:09:19.509Z,953.77
2018-05-16T10:10:19.525Z,953.78
2018-05-16T10:11:19.531Z,953.76
2018-05-16T10:12:19.541Z,953.78
2018-05-16T10:13:19.562Z,953.81
2018-05-16T10:14:19.562Z,953.79
2018-05-16T10:15:19.570Z,953.84
2018-05-16T10:16:19.583Z,953.82
2018-05-16T10:17:19.594Z,953.87
2018-05-16T10:18:19.610Z,953.81
2018-05-16T10:19:19.617Z,953.85
2018-05-16T10:20:19.698Z,953.87
2018-05-16T10:21:19.637Z,953.85
2018-05-16T10:22:19.647Z,953.88
2018-05-16T10:23:19.658Z,953.86
2018-05-16T10:24:19.666Z,953.90
2018-05-16T10:25:19.677Z,953.86
2018-05-16T10:26:19.685Z,953.86
2018-05-16T10:27:19.706Z,953.91
2018-05-16T10:28:19.708Z,953.86
2018-05-16T10:29:19.725Z,953.87
2018-05-16T10:30:19.731Z,953.85
2018-05-16T10:31:19.738Z,953.86
2018-05-16T10:32:19.752Z,953.87
2018-05-16T10:33:19.761Z,953.84
2018-05-16T10:34:19.771Z,953.89
2018-05-16T10:35:19.785Z,953.87
2018-05-16T10:36:19.792Z,953.86
2018-05-16T10:37:19.800Z,953.86
2018-05-16T10:38:19.813Z,953.88
2018-05-16T10:39:19.824Z,953.82
2018-05-16T10:40:19.838Z,953.86
2018-05-16T10:41:19.844Z,953.84
2018-05-16T10:42:19.855Z,953.82
2018-05-16T10:43:19.865Z,953.83
2018-05-16T10:44:19.879Z,953.86
2018-05-16T10:45:19.895Z,953.81
2018-05-16T10:46:19.896Z,953.85
2018-05-16T10:47:19.909Z,953.86
2018-05-16T10:48:19.919Z,953.87
2018-05-16T10:49:19.931Z,953.85
2018-05-16T10:50:19.942Z,953.85
2018-05-16T10:51:19.950Z,953.84
2018-05-16T10:52:19.972Z,953.84
2018-05-16T10:53:19.974Z,953.82
2018-05-16T10:54:19.983Z,953.87
2018-05-16T10:55:19.989Z,953.89
2018-05-16T10:56:20.004Z,953.93
2018-05-16T10:57:20.103Z,953.97
2018-05-16T10:58:20.020Z,953.98
2018-05-16T10:59:20.037Z,954.00
2018-05-16T11:00:20.061Z,954.04
2018-05-16T11:01:20.055Z,954.06
2018-05-16T11:02:20.079Z,954.07
2018-05-16T11:03:20.139Z,954.03
2018-05-16T11:04:20.088Z,954.06
2018-05-16T11:05:20.102Z,954.06
2018-05-16T11:06:20.109Z,954.09
2018-05-16T11:07:20.117Z,954.08
2018-05-16T11:08:20.129Z,954.07
2018-05-16T11:09:20.141Z,954.10
2018-05-16T11:10:20.149Z,954.12
2018-05-16T11:11:20.163Z,954.12
2018-05-16T11:12:20.173Z,954.16
2018-05-16T11:13:20.185Z,954.15
2018-05-16T11:14:20.192Z,954.17
2018-05-16T11:15:20.202Z,954.17
2018-05-16T11:16:20.214Z,954.15
2018-05-16T11:17:20.223Z,954.14
2018-05-16T11:18:20.237Z,954.17
2018-05-16T11:19:20.249Z,954.19
2018-05-16T11:20:20.259Z,954.15
2018-05-16T11:21:20.292Z,954.17
2018-05-16T11:22:20.277Z,954.19
2018-05-16T11:23:20.289Z,954.22
2018-05-16T11:24:20.301Z,954.22
2018-05-16T11:25:20.313Z,954.25
2018-05-16T11:26:20.337Z,954.31
2018-05-16T11:27:20.332Z,954.35
2018-05-16T11:28:20.348Z,954.33
2018-05-16T11:29:20.364Z,954.28
2018-05-16T11:30:20.370Z,954.34
2018-05-16T11:31:20.379Z,954.31
2018-05-16T11:32:20.391Z,954.38
2018-05-16T11:33:20.407Z,954.29
2018-05-16T11:34:20.411Z,954.41
2018-05-16T11:35:20.429Z,954.38
2018-05-16T11:36:20.436Z,954.41
2018-05-16T11:37:20.448Z,954.34
2018-05-16T11:38:20.456Z,954.35
2018-05-16T11:39:20.471Z,954.42
2018-05-16T11:40:20.480Z,954.43
2018-05-16T11:41:20.492Z,954.48
2018-05-16T11:42:20.503Z,954.49
2018-05-16T11:43:20.524Z,954.46
2018-05-16T11:44:20.533Z,954.48
2018-05-16T11:45:20.541Z,954.55
2018-05-16T11:46:20.570Z,954.61
2018-05-16T11:47:20.577Z,954.57
2018-05-16T11:48:20.577Z,954.49
2018-05-16T11:49:20.584Z,954.46
2018-05-16T11:50:20.600Z,954.46
2018-05-16T11:51:20.611Z,954.40
2018-05-16T11:52:20.628Z,954.43
2018-05-16T11:53:20.632Z,954.50
2018-05-16T11:54:20.643Z,954.57
2018-05-16T11:55:20.655Z,954.60
2018-05-16T11:56:20.668Z,954.61
2018-05-16T11:57:20.679Z,954.62
2018-05-16T11:58:20.693Z,954.55
2018-05-16T11:59:20.793Z,954.51
2018-05-16T12:00:20.718Z,954.46
2018-05-16T12:01:20.729Z,954.45
2018-05-16T12:02:20.741Z,954.44
2018-05-16T12:03:20.754Z,954.40
2018-05-16T12:04:20.799Z,954.30
2018-05-16T12:05:20.787Z,954.14
2018-05-16T12:06:20.787Z,954.17
2018-05-16T12:07:20.804Z,954.14
2018-05-16T12:08:20.815Z,954.15
2018-05-16T12:09:20.826Z,954.10
2018-05-16T12:10:20.841Z,954.12
2018-05-16T12:11:20.898Z,954.12
2018-05-16T12:12:20.860Z,954.16
2018-05-16T12:13:20.875Z,954.14
2018-05-16T12:14:20.882Z,954.20
2018-05-16T12:15:20.902Z,954.17
2018-05-16T12:16:20.930Z,954.18
2018-05-16T12:17:20.922Z,954.17
2018-05-16T12:18:20.934Z,954.25
2018-05-16T12:19:20.945Z,954.32
2018-05-16T12:20:20.960Z,954.34
2018-05-16T12:21:20.970Z,954.37
2018-05-16T12:22:20.992Z,954.38
2018-05-16T12:23:20.992Z,954.38
2018-05-16T12:24:21.009Z,954.36
2018-05-16T12:25:21.018Z,954.39
2018-05-16T12:26:21.029Z,954.34
2018-05-16T12:27:21.038Z,954.38
2018-05-16T12:28:21.052Z,954.39
2018-05-16T12:29:21.209Z,954.43
2018-05-16T12:30:21.075Z,954.41